createdAt,value
2018-10-05T00:04:33.905Z,90.87
2018-10-05T00:09:52.610Z,90.69
2018-10-05T00:15:11.155Z,90.91
2018-10-05T00:20:29.732Z,91.52
2018-10-05T00:25:48.231Z,91.56
2018-10-05T00:31:07.269Z,91.27
2018-10-05T00:36:25.900Z,91.07
2018-10-05T00:41:44.388Z,91.04
2018-10-05T00:47:02.892Z,89.90
2018-10-05T00:52:22.096Z,88.46
2018-10-05T00:57:40.601Z,87.89
2018-10-05T01:02:59.165Z,88.31
2018-10-05T01:08:17.685Z,89.79
2018-10-05T01:13:36.184Z,89.51
2018-10-05T01:18:54.784Z,90.53
2018-10-05T01:24:13.651Z,91.31
2018-10-05T01:29:32.161Z,91.84
2018-10-05T01:34:50.859Z,92.09
2018-10-05T01:40:10.535Z,91.27
2018-10-05T01:45:29.135Z,90.94
2018-10-05T01:50:47.718Z,90.32
2018-10-05T01:56:06.411Z,90.47
2018-10-05T02:01:25.824Z,90.04
2018-10-05T02:06:45.008Z,89.97
2018-10-05T02:12:03.566Z,90.40
2018-10-05T02:17:22.568Z,90.03
2018-10-05T02:22:41.204Z,89.98
2018-10-05T02:28:00.433Z,89.99
2018-10-05T02:33:19.041Z,89.16
2018-10-05T02:38:37.561Z,88.90
2018-10-05T02:43:56.344Z,88.15
2018-10-05T02:49:14.866Z,87.79
2018-10-05T02:54:34.003Z,87.81
2018-10-05T02:59:52.527Z,87.66
2018-10-05T03:05:11.160Z,87.55
2018-10-05T03:10:29.668Z,87.38
2018-10-05T03:15:48.401Z,87.39
2018-10-05T03:21:07.243Z,88.15
2018-10-05T03:26:25.860Z,88.65
2018-10-05T03:31:45.475Z,88.71
2018-10-05T03:37:04.626Z,88.51
2018-10-05T03:42:23.215Z,88.69
2018-10-05T03:47:41.870Z,88.74
2018-10-05T03:53:00.424Z,88.65
2018-10-05T03:58:19.358Z,88.97
2018-10-05T04:03:37.877Z,88.90
2018-10-05T04:08:56.470Z,89.55
2018-10-05T04:14:15.157Z,89.51
2018-10-05T04:19:33.766Z,89.54
2018-10-05T04:24:52.280Z,89.71
2018-10-05T04:30:10.964Z,89.42
2018-10-05T04:35:29.831Z,89.35
2018-10-05T04:40:48.358Z,89.53
2018-10-05T04:46:07.025Z,89.28
2018-10-05T04:51:25.753Z,89.18
2018-10-05T04:56:44.266Z,89.78
2018-10-05T05:02:02.820Z,90.13
2018-10-05T05:07:21.891Z,91.85
2018-10-05T05:12:40.467Z,87.81
2018-10-05T05:17:59.037Z,86.07
2018-10-05T05:23:17.589Z,83.43
2018-10-05T05:28:36.168Z,82.15
2018-10-05T05:33:55.723Z,81.46
2018-10-05T05:39:14.329Z,80.33
2018-10-05T05:44:32.948Z,79.40
2018-10-05T05:49:51.844Z,78.72
2018-10-05T05:55:11.378Z,78.19
2018-10-05T06:00:30.120Z,78.26
2018-10-05T06:05:48.788Z,78.06
2018-10-05T06:11:08.068Z,77.11
2018-10-05T06:16:26.808Z,76.02
2018-10-05T06:21:45.376Z,74.67
2018-10-05T06:27:03.882Z,73.79
2018-10-05T06:32:23.208Z,74.47
2018-10-05T06:37:41.799Z,73.49
2018-10-05T06:43:01.935Z,73.66
2018-10-05T06:48:21.561Z,73.10
2018-10-05T06:53:40.193Z,72.75
2018-10-05T06:58:59.427Z,71.80
2018-10-05T07:04:17.965Z,71.44
2018-10-05T07:09:36.553Z,69.89
2018-10-05T07:14:55.107Z,69.99
2018-10-05T07:20:13.741Z,69.34
2018-10-05T07:25:39.091Z,68.25
2018-10-05T07:30:57.834Z,68.40
2018-10-05T07:36:16.635Z,67.38
2018-10-05T07:41:35.181Z,68.24
2018-10-05T07:46:53.870Z,66.75
2018-10-05T07:52:12.606Z,67.09
2018-10-05T07:57:31.533Z,66.16
2018-10-05T08:02:50.847Z,65.03
2018-10-05T08:08:09.619Z,65.24
2018-10-05T08:13:28.280Z,64.29
2018-10-05T08:18:46.871Z,64.07
2018-10-05T08:24:06.322Z,63.17
2018-10-05T08:29:25.057Z,65.29
2018-10-05T08:34:43.607Z,63.25
2018-10-05T08:40:02.240Z,61.92
2018-10-05T08:45:20.855Z,62.15
2018-10-05T08:50:39.446Z,60.27
2018-10-05T08:55:57.996Z,60.59
2018-10-05T09:01:17.214Z,59.85
2018-10-05T09:06:36.741Z,59.25
2018-10-05T09:11:55.373Z,59.76
2018-10-05T09:17:13.982Z,58.51
2018-10-05T09:22:32.591Z,57.04
2018-10-05T09:27:51.353Z,57.30
2018-10-05T09:33:16.380Z,58.33
2018-10-05T09:38:35.722Z,56.90
2018-10-05T09:43:54.302Z,56.37
2018-10-05T09:49:14.008Z,55.94
2018-10-05T09:54:32.594Z,55.90
2018-10-05T09:59:51.322Z,55.17
2018-10-05T10:05:09.823Z,52.95
2018-10-05T10:10:28.530Z,54.88
2018-10-05T10:15:47.059Z,53.61
2018-10-05T10:21:06.368Z,51.94
2018-10-05T10:26:24.882Z,53.80
2018-10-05T10:31:43.441Z,52.03
2018-10-05T10:37:02.603Z,52.39
2018-10-05T10:42:21.223Z,50.67
2018-10-05T10:47:39.822Z,50.13
2018-10-05T10:52:58.394Z,50.30
2018-10-05T10:58:17.015Z,48.75
2018-10-05T11:03:35.666Z,50.71
2018-10-05T11:08:54.263Z,50.49
2018-10-05T11:14:12.831Z,49.47
2018-10-05T11:19:31.510Z,49.25
2018-10-05T11:24:50.178Z,48.30
2018-10-05T11:30:09.467Z,47.67
2018-10-05T11:35:28.171Z,49.30
2018-10-05T11:40:46.853Z,48.04
2018-10-05T11:46:05.562Z,46.55
2018-10-05T11:51:24.178Z,47.16
2018-10-05T11:56:42.871Z,47.35
2018-10-05T12:02:01.423Z,46.54
2018-10-05T12:07:20.003Z,46.24
2018-10-05T12:12:38.544Z,45.29
2018-10-05T12:17:57.750Z,46.35
2018-10-05T12:23:16.343Z,43.22
2018-10-05T12:28:34.849Z,44.39
2018-10-05T12:33:53.487Z,44.98
2018-10-05T12:39:12.088Z,45.46
2018-10-05T12:44:30.707Z,43.70
2018-10-05T12:49:49.287Z,45.13
2018-10-05T12:55:07.910Z,46.12
2018-10-05T13:00:26.506Z,45.48
2018-10-05T13:05:45.184Z,44.46
2018-10-05T13:11:03.809Z,44.37
2018-10-05T13:16:22.400Z,43.54
2018-10-05T13:21:41.013Z,45.39
2018-10-05T13:26:59.610Z,43.50
2018-10-05T13:32:18.215Z,43.80
2018-10-05T13:37:36.764Z,43.52
2018-10-05T13:42:55.293Z,43.61
2018-10-05T13:48:13.839Z,44.17
2018-10-05T13:53:32.603Z,44.70
2018-10-05T13:58:51.211Z,44.13
2018-10-05T14:04:09.864Z,44.50
2018-10-05T14:09:28.513Z,44.33
2018-10-05T14:14:47.155Z,43.17
2018-10-05T14:20:06.127Z,41.72
2018-10-05T14:25:24.890Z,40.84
2018-10-05T14:30:43.534Z,42.38
2018-10-05T14:36:02.456Z,42.42
2018-10-05T14:41:21.733Z,43.00
2018-10-05T14:46:40.467Z,42.24
2018-10-05T14:51:58.983Z,43.02
2018-10-05T14:57:17.552Z,44.78
2018-10-05T15:02:36.044Z,45.39
2018-10-05T15:07:54.601Z,44.84
2018-10-05T15:13:13.161Z,45.02
2018-10-05T15:18:31.708Z,45.50
2018-10-05T15:23:50.340Z,46.56
2018-10-05T15:29:08.884Z,46.84
2018-10-05T15:34:27.417Z,46.94
2018-10-05T15:39:46.183Z,47.89
2018-10-05T15:45:04.807Z,48.77
2018-10-05T15:50:23.443Z,48.90
2018-10-05T15:55:42.059Z,49.78
2018-10-05T16:01:00.612Z,48.51
2018-10-05T16:06:19.180Z,48.95
2018-10-05T16:11:38.043Z,47.39
2018-10-05T16:16:57.165Z,47.71
2018-10-05T16:22:15.697Z,47.15
2018-10-05T16:27:34.269Z,48.62
2018-10-05T16:32:52.850Z,49.51
2018-10-05T16:38:12.143Z,51.75
2018-10-05T16:43:38.743Z,52.01
2018-10-05T16:48:57.390Z,52.96
2018-10-05T16:54:16.585Z,54.58
2018-10-05T16:59:35.175Z,57.43
2018-10-05T17:04:53.770Z,58.87
2018-10-05T17:10:13.476Z,59.64
2018-10-05T17:15:31.995Z,59.44
2018-10-05T17:20:50.514Z,59.74
2018-10-05T17:26:09.149Z,62.06
2018-10-05T17:31:27.817Z,62.69
2018-10-05T17:36:47.270Z,63.35
2018-10-05T17:42:05.852Z,63.75
2018-10-05T17:47:24.612Z,64.49
2018-10-05T17:52:43.261Z,64.79
2018-10-05T17:58:02.125Z,64.97
2018-10-05T18:03:20.667Z,65.70
2018-10-05T18:08:39.240Z,65.92
2018-10-05T18:13:59.839Z,65.88
2018-10-05T18:19:19.077Z,66.58
2018-10-05T18:24:37.622Z,66.65
2018-10-05T18:29:56.194Z,67.50
2018-10-05T18:35:15.203Z,67.13
2018-10-05T18:40:34.237Z,67.18
2018-10-05T18:45:53.485Z,67.09
2018-10-05T18:51:12.095Z,67.12
2018-10-05T18:56:41.907Z,67.41
2018-10-05T19:02:00.717Z,67.74
2018-10-05T19:07:20.067Z,67.26
2018-10-05T19:12:38.629Z,67.17
2018-10-05T19:17:57.235Z,67.38
2018-10-05T19:23:16.124Z,67.08
2018-10-05T19:28:36.227Z,67.50
2018-10-05T19:33:55.124Z,68.04
2018-10-05T19:39:13.774Z,68.33
2018-10-05T19:44:32.494Z,68.18
2018-10-05T19:49:51.376Z,68.60
2018-10-05T19:55:10.116Z,67.51
2018-10-05T20:00:30.812Z,67.82
2018-10-05T20:05:49.951Z,68.39
2018-10-05T20:11:10.764Z,68.44
2018-10-05T20:16:29.953Z,69.39
2018-10-05T20:21:48.717Z,70.29
2018-10-05T20:27:07.586Z,70.51
2018-10-05T20:32:26.877Z,71.38
2018-10-05T20:37:46.240Z,72.04
2018-10-05T20:43:04.812Z,71.77
2018-10-05T20:48:24.684Z,72.23
2018-10-05T20:53:43.912Z,72.86
2018-10-05T20:59:03.234Z,73.22
2018-10-05T21:04:22.630Z,73.11
2018-10-05T21:09:41.205Z,73.75
2018-10-05T21:15:00.014Z,74.84
2018-10-05T21:20:18.997Z,75.85
2018-10-05T21:25:37.775Z,76.61
2018-10-05T21:30:56.432Z,76.73
2018-10-05T21:36:15.209Z,76.81
2018-10-05T21:41:34.146Z,77.16
2018-10-05T21:46:52.780Z,77.24
2018-10-05T21:52:11.368Z,77.55
2018-10-05T21:57:30.054Z,77.56
2018-10-05T22:02:48.822Z,77.60
2018-10-05T22:08:07.379Z,77.70
2018-10-05T22:13:32.639Z,78.19
2018-10-05T22:18:51.265Z,78.43
2018-10-05T22:24:09.851Z,78.97
2018-10-05T22:29:28.541Z,79.00
2018-10-05T22:34:47.054Z,78.99
2018-10-05T22:40:06.053Z,79.66
2018-10-05T22:45:24.927Z,79.33
2018-10-05T22:50:43.498Z,79.91
2018-10-05T22:56:02.133Z,79.32
2018-10-05T23:01:20.702Z,80.27
2018-10-05T23:06:39.271Z,79.96
2018-10-05T23:11:57.764Z,80.54
2018-10-05T23:17:18.641Z,80.80
2018-10-05T23:22:37.462Z,81.28
2018-10-05T23:27:56.931Z,81.22
2018-10-05T23:33:15.861Z,81.75
2018-10-05T23:38:34.459Z,81.85
2018-10-05T23:43:53.254Z,81.80
2018-10-05T23:49:12.238Z,81.86
2018-10-05T23:54:31.166Z,82.79
2018-10-05T23:59:50.118Z,83.06
